Ashfield, Massachusetts
Current Conditions -  °F | °C
As of 10:22 AM on Saturday 25 Oct 2014 (Local Time) from KAQW Reporting Station
Scattered Clouds Scattered Clouds  
Wind Chill: 46°   Ceiling: Unl
Heat Index: 49°   Visibility: 8mi
Dew Point: 43°   Wind: 7mph
Humidity: 80%   Direction: 280°W
Pressure: 29.8"   Gusts: NA
Location:  42.53°N, 72.79°W
Report Text: KAQW 251422Z AUTO 28006KT 8SM SCT018 09/06 A2980 RMK AO2 T00940061
Loading
Personal Weather Stations






























Interactive Weather Map
Tropical Storm Tracking
New forecast layout! Learn more

10-Day Weather Forecast

Advertisements
Track Severe Weather on mobile